sensor_id;sensor_type;location;lat;lon;timestamp;P1;durP1;ratioP1;P2;durP2;ratioP2
28481;SDS011;15703;49.588;6.260;2023-07-13T00:00:31;2.40;;;1.80;;
28481;SDS011;15703;49.588;6.260;2023-07-13T00:02:53;2.07;;;1.37;;
28481;SDS011;15703;49.588;6.260;2023-07-13T00:05:16;2.27;;;1.50;;
28481;SDS011;15703;49.588;6.260;2023-07-13T00:07:38;3.23;;;1.67;;
28481;SDS011;15703;49.588;6.260;2023-07-13T00:10:01;1.53;;;1.43;;
28481;SDS011;15703;49.588;6.260;2023-07-13T00:12:31;2.27;;;1.60;;
28481;SDS011;15703;49.588;6.260;2023-07-13T00:14:58;2.90;;;1.67;;
28481;SDS011;15703;49.588;6.260;2023-07-13T00:17:21;3.33;;;1.70;;
28481;SDS011;15703;49.588;6.260;2023-07-13T00:19:43;3.47;;;1.90;;
28481;SDS011;15703;49.588;6.260;2023-07-13T00:22:07;3.10;;;1.80;;
28481;SDS011;15703;49.588;6.260;2023-07-13T00:24:29;1.70;;;1.60;;
28481;SDS011;15703;49.588;6.260;2023-07-13T00:26:52;1.70;;;1.60;;
28481;SDS011;15703;49.588;6.260;2023-07-13T00:29:14;3.53;;;1.70;;
28481;SDS011;15703;49.588;6.260;2023-07-13T00:31:37;4.00;;;1.80;;
28481;SDS011;15703;49.588;6.260;2023-07-13T00:34:00;1.70;;;1.30;;
28481;SDS011;15703;49.588;6.260;2023-07-13T00:36:22;2.63;;;1.60;;
28481;SDS011;15703;49.588;6.260;2023-07-13T00:38:44;4.03;;;1.83;;
28481;SDS011;15703;49.588;6.260;2023-07-13T00:41:07;1.93;;;1.70;;
28481;SDS011;15703;49.588;6.260;2023-07-13T00:43:30;2.40;;;1.33;;
28481;SDS011;15703;49.588;6.260;2023-07-13T00:48:17;1.93;;;1.80;;
28481;SDS011;15703;49.588;6.260;2023-07-13T00:50:41;1.60;;;1.50;;
28481;SDS011;15703;49.588;6.260;2023-07-13T00:53:03;2.50;;;1.80;;
28481;SDS011;15703;49.588;6.260;2023-07-13T00:55:26;1.83;;;1.60;;
28481;SDS011;15703;49.588;6.260;2023-07-13T00:57:49;1.77;;;1.63;;
28481;SDS011;15703;49.588;6.260;2023-07-13T01:00:11;1.60;;;1.50;;
28481;SDS011;15703;49.588;6.260;2023-07-13T01:02:35;3.43;;;1.90;;
28481;SDS011;15703;49.588;6.260;2023-07-13T01:04:58;2.03;;;1.73;;
28481;SDS011;15703;49.588;6.260;2023-07-13T01:07:21;4.43;;;1.60;;
28481;SDS011;15703;49.588;6.260;2023-07-13T01:09:44;6.23;;;1.80;;
28481;SDS011;15703;49.588;6.260;2023-07-13T01:12:06;2.83;;;2.03;;
28481;SDS011;15703;49.588;6.260;2023-07-13T01:14:29;2.40;;;1.83;;
28481;SDS011;15703;49.588;6.260;2023-07-13T01:16:51;2.97;;;1.70;;
28481;SDS011;15703;49.588;6.260;2023-07-13T01:21:37;2.83;;;1.87;;
28481;SDS011;15703;49.588;6.260;2023-07-13T01:24:04;4.33;;;2.07;;
28481;SDS011;15703;49.588;6.260;2023-07-13T01:26:26;4.97;;;1.50;;
28481;SDS011;15703;49.588;6.260;2023-07-13T01:28:49;6.13;;;2.07;;
28481;SDS011;15703;49.588;6.260;2023-07-13T01:31:11;2.90;;;1.90;;
28481;SDS011;15703;49.588;6.260;2023-07-13T01:33:36;2.60;;;1.70;;
28481;SDS011;15703;49.588;6.260;2023-07-13T01:35:59;9.83;;;1.80;;
28481;SDS011;15703;49.588;6.260;2023-07-13T01:38:23;2.60;;;1.93;;
28481;SDS011;15703;49.588;6.260;2023-07-13T01:40:46;2.83;;;1.60;;
28481;SDS011;15703;49.588;6.260;2023-07-13T01:43:09;3.23;;;1.73;;
28481;SDS011;15703;49.588;6.260;2023-07-13T01:45:32;2.17;;;1.65;;
28481;SDS011;15703;49.588;6.260;2023-07-13T01:47:54;4.20;;;2.03;;
28481;SDS011;15703;49.588;6.260;2023-07-13T01:50:17;5.93;;;1.90;;
28481;SDS011;15703;49.588;6.260;2023-07-13T01:52:40;4.43;;;1.73;;
28481;SDS011;15703;49.588;6.260;2023-07-13T01:55:03;2.93;;;1.80;;
28481;SDS011;15703;49.588;6.260;2023-07-13T01:57:25;3.13;;;1.73;;
28481;SDS011;15703;49.588;6.260;2023-07-13T01:59:47;1.90;;;1.80;;
28481;SDS011;15703;49.588;6.260;2023-07-13T02:02:10;2.60;;;1.60;;
28481;SDS011;15703;49.588;6.260;2023-07-13T02:04:33;2.77;;;1.60;;
28481;SDS011;15703;49.588;6.260;2023-07-13T02:06:55;2.60;;;1.97;;
28481;SDS011;15703;49.588;6.260;2023-07-13T02:09:18;2.07;;;1.70;;
28481;SDS011;15703;49.588;6.260;2023-07-13T02:11:40;2.93;;;1.70;;
28481;SDS011;15703;49.588;6.260;2023-07-13T02:14:03;2.08;;;1.58;;
28481;SDS011;15703;49.588;6.260;2023-07-13T02:16:25;2.37;;;1.60;;
28481;SDS011;15703;49.588;6.260;2023-07-13T02:18:48;3.60;;;1.92;;
28481;SDS011;15703;49.588;6.260;2023-07-13T02:21:13;3.83;;;1.87;;
28481;SDS011;15703;49.588;6.260;2023-07-13T02:23:36;3.67;;;1.60;;
28481;SDS011;15703;49.588;6.260;2023-07-13T02:25:59;1.83;;;1.40;;
28481;SDS011;15703;49.588;6.260;2023-07-13T02:28:22;5.10;;;1.97;;
28481;SDS011;15703;49.588;6.260;2023-07-13T02:30:44;2.97;;;1.67;;
28481;SDS011;15703;49.588;6.260;2023-07-13T02:33:06;3.15;;;1.77;;
28481;SDS011;15703;49.588;6.260;2023-07-13T02:35:29;4.77;;;1.90;;
28481;SDS011;15703;49.588;6.260;2023-07-13T02:37:52;3.93;;;1.80;;
28481;SDS011;15703;49.588;6.260;2023-07-13T02:40:15;3.08;;;1.42;;
28481;SDS011;15703;49.588;6.260;2023-07-13T02:42:37;3.58;;;1.70;;
28481;SDS011;15703;49.588;6.260;2023-07-13T02:45:04;2.45;;;1.40;;
28481;SDS011;15703;49.588;6.260;2023-07-13T02:47:27;3.47;;;1.75;;
28481;SDS011;15703;49.588;6.260;2023-07-13T02:49:49;2.38;;;1.50;;
28481;SDS011;15703;49.588;6.260;2023-07-13T02:52:12;2.45;;;1.40;;
28481;SDS011;15703;49.588;6.260;2023-07-13T02:54:34;9.93;;;1.93;;
28481;SDS011;15703;49.588;6.260;2023-07-13T02:56:56;2.10;;;1.87;;
28481;SDS011;15703;49.588;6.260;2023-07-13T02:59:19;2.67;;;1.63;;
28481;SDS011;15703;49.588;6.260;2023-07-13T03:01:41;4.70;;;1.75;;
28481;SDS011;15703;49.588;6.260;2023-07-13T03:04:04;2.40;;;1.70;;
28481;SDS011;15703;49.588;6.260;2023-07-13T03:06:30;4.88;;;1.95;;
28481;SDS011;15703;49.588;6.260;2023-07-13T03:08:53;5.65;;;1.50;;
28481;SDS011;15703;49.588;6.260;2023-07-13T03:11:18;6.18;;;1.85;;
28481;SDS011;15703;49.588;6.260;2023-07-13T03:13:47;2.72;;;1.40;;
28481;SDS011;15703;49.588;6.260;2023-07-13T03:16:10;3.15;;;1.77;;
28481;SDS011;15703;49.588;6.260;2023-07-13T03:18:36;2.65;;;1.58;;
28481;SDS011;15703;49.588;6.260;2023-07-13T03:21:02;3.28;;;1.58;;
28481;SDS011;15703;49.588;6.260;2023-07-13T03:23:25;2.20;;;1.30;;
28481;SDS011;15703;49.588;6.260;2023-07-13T03:25:47;1.40;;;1.20;;
28481;SDS011;15703;49.588;6.260;2023-07-13T03:28:11;2.20;;;1.40;;
28481;SDS011;15703;49.588;6.260;2023-07-13T03:30:34;1.87;;;1.40;;
28481;SDS011;15703;49.588;6.260;2023-07-13T03:32:57;2.72;;;1.67;;
28481;SDS011;15703;49.588;6.260;2023-07-13T03:35:20;1.95;;;1.40;;
28481;SDS011;15703;49.588;6.260;2023-07-13T03:37:42;2.28;;;1.33;;
28481;SDS011;15703;49.588;6.260;2023-07-13T03:40:10;2.67;;;1.33;;
28481;SDS011;15703;49.588;6.260;2023-07-13T03:42:33;1.63;;;1.40;;
28481;SDS011;15703;49.588;6.260;2023-07-13T03:44:55;5.50;;;2.13;;
28481;SDS011;15703;49.588;6.260;2023-07-13T03:47:18;2.85;;;1.38;;
28481;SDS011;15703;49.588;6.260;2023-07-13T03:49:41;1.90;;;1.42;;
28481;SDS011;15703;49.588;6.260;2023-07-13T03:52:03;3.67;;;1.60;;
28481;SDS011;15703;49.588;6.260;2023-07-13T03:54:26;4.75;;;2.15;;
28481;SDS011;15703;49.588;6.260;2023-07-13T03:56:49;3.08;;;1.50;;
28481;SDS011;15703;49.588;6.260;2023-07-13T03:59:13;3.55;;;1.98;;
28481;SDS011;15703;49.588;6.260;2023-07-13T04:01:35;7.50;;;1.85;;
28481;SDS011;15703;49.588;6.260;2023-07-13T04:03:58;3.88;;;1.30;;
28481;SDS011;15703;49.588;6.260;2023-07-13T04:06:28;3.55;;;1.35;;
28481;SDS011;15703;49.588;6.260;2023-07-13T04:08:52;2.83;;;1.30;;
28481;SDS011;15703;49.588;6.260;2023-07-13T04:11:15;3.97;;;1.55;;
28481;SDS011;15703;49.588;6.260;2023-07-13T04:13:37;3.15;;;1.30;;
28481;SDS011;15703;49.588;6.260;2023-07-13T04:16:00;2.33;;;1.15;;
28481;SDS011;15703;49.588;6.260;2023-07-13T04:18:22;5.88;;;1.40;;
28481;SDS011;15703;49.588;6.260;2023-07-13T04:20:45;1.52;;;1.08;;
28481;SDS011;15703;49.588;6.260;2023-07-13T04:23:07;6.75;;;1.70;;
28481;SDS011;15703;49.588;6.260;2023-07-13T04:25:30;5.40;;;1.30;;
28481;SDS011;15703;49.588;6.260;2023-07-13T04:27:52;4.03;;;1.48;;
28481;SDS011;15703;49.588;6.260;2023-07-13T04:30:15;5.40;;;1.80;;
28481;SDS011;15703;49.588;6.260;2023-07-13T04:32:37;2.97;;;1.30;;
28481;SDS011;15703;49.588;6.260;2023-07-13T04:35:00;1.98;;;1.33;;
28481;SDS011;15703;49.588;6.260;2023-07-13T04:37:22;2.35;;;1.30;;
28481;SDS011;15703;49.588;6.260;2023-07-13T04:39:44;2.22;;;1.17;;
28481;SDS011;15703;49.588;6.260;2023-07-13T04:42:06;4.38;;;1.40;;
28481;SDS011;15703;49.588;6.260;2023-07-13T04:44:29;2.10;;;1.20;;
28481;SDS011;15703;49.588;6.260;2023-07-13T04:46:51;4.57;;;1.55;;
28481;SDS011;15703;49.588;6.260;2023-07-13T04:49:14;3.97;;;1.60;;
28481;SDS011;15703;49.588;6.260;2023-07-13T04:51:37;5.82;;;1.73;;
28481;SDS011;15703;49.588;6.260;2023-07-13T04:53:59;2.65;;;1.23;;
28481;SDS011;15703;49.588;6.260;2023-07-13T04:56:22;4.50;;;1.27;;
28481;SDS011;15703;49.588;6.260;2023-07-13T04:58:44;2.90;;;1.33;;
28481;SDS011;15703;49.588;6.260;2023-07-13T05:01:07;3.00;;;1.48;;
28481;SDS011;15703;49.588;6.260;2023-07-13T05:03:31;5.65;;;1.70;;
28481;SDS011;15703;49.588;6.260;2023-07-13T05:05:58;4.22;;;1.65;;
28481;SDS011;15703;49.588;6.260;2023-07-13T05:08:20;4.22;;;1.33;;
28481;SDS011;15703;49.588;6.260;2023-07-13T05:10:42;3.58;;;1.40;;
28481;SDS011;15703;49.588;6.260;2023-07-13T05:13:05;1.67;;;0.80;;
28481;SDS011;15703;49.588;6.260;2023-07-13T05:15:27;2.35;;;1.00;;
28481;SDS011;15703;49.588;6.260;2023-07-13T05:17:50;4.25;;;1.40;;
28481;SDS011;15703;49.588;6.260;2023-07-13T05:20:12;2.17;;;1.02;;
28481;SDS011;15703;49.588;6.260;2023-07-13T05:22:34;2.97;;;1.25;;
28481;SDS011;15703;49.588;6.260;2023-07-13T05:24:57;2.28;;;1.05;;
28481;SDS011;15703;49.588;6.260;2023-07-13T05:27:19;2.97;;;0.93;;
28481;SDS011;15703;49.588;6.260;2023-07-13T05:29:42;2.65;;;0.98;;
28481;SDS011;15703;49.588;6.260;2023-07-13T05:32:04;4.05;;;1.10;;
28481;SDS011;15703;49.588;6.260;2023-07-13T05:34:27;2.90;;;1.08;;
28481;SDS011;15703;49.588;6.260;2023-07-13T05:36:50;1.48;;;0.70;;
28481;SDS011;15703;49.588;6.260;2023-07-13T05:39:13;5.65;;;1.00;;
28481;SDS011;15703;49.588;6.260;2023-07-13T05:41:35;6.20;;;1.27;;
28481;SDS011;15703;49.588;6.260;2023-07-13T05:44:00;3.53;;;1.00;;
28481;SDS011;15703;49.588;6.260;2023-07-13T05:46:22;4.63;;;0.82;;
28481;SDS011;15703;49.588;6.260;2023-07-13T05:48:45;7.30;;;1.10;;
28481;SDS011;15703;49.588;6.260;2023-07-13T05:51:07;3.35;;;1.20;;
28481;SDS011;15703;49.588;6.260;2023-07-13T05:53:29;2.45;;;0.93;;
28481;SDS011;15703;49.588;6.260;2023-07-13T05:55:53;2.33;;;0.85;;
28481;SDS011;15703;49.588;6.260;2023-07-13T05:58:16;3.30;;;0.73;;
28481;SDS011;15703;49.588;6.260;2023-07-13T06:00:39;2.95;;;1.30;;
28481;SDS011;15703;49.588;6.260;2023-07-13T06:03:02;2.70;;;0.95;;
28481;SDS011;15703;49.588;6.260;2023-07-13T06:05:25;2.67;;;1.13;;
28481;SDS011;15703;49.588;6.260;2023-07-13T06:07:48;3.47;;;0.90;;
28481;SDS011;15703;49.588;6.260;2023-07-13T06:10:10;2.85;;;0.73;;
28481;SDS011;15703;49.588;6.260;2023-07-13T06:12:33;4.72;;;0.90;;
28481;SDS011;15703;49.588;6.260;2023-07-13T06:14:55;2.70;;;1.00;;
28481;SDS011;15703;49.588;6.260;2023-07-13T06:17:17;2.83;;;0.77;;
28481;SDS011;15703;49.588;6.260;2023-07-13T06:19:40;3.95;;;0.82;;
28481;SDS011;15703;49.588;6.260;2023-07-13T06:22:02;2.75;;;0.73;;
28481;SDS011;15703;49.588;6.260;2023-07-13T06:24:25;1.70;;;0.77;;
28481;SDS011;15703;49.588;6.260;2023-07-13T06:26:47;3.38;;;1.10;;
28481;SDS011;15703;49.588;6.260;2023-07-13T06:29:10;1.80;;;0.88;;
28481;SDS011;15703;49.588;6.260;2023-07-13T06:31:32;6.10;;;1.42;;
28481;SDS011;15703;49.588;6.260;2023-07-13T06:33:55;3.20;;;1.00;;
28481;SDS011;15703;49.588;6.260;2023-07-13T06:36:17;2.70;;;0.90;;
28481;SDS011;15703;49.588;6.260;2023-07-13T06:38:40;2.88;;;0.85;;
28481;SDS011;15703;49.588;6.260;2023-07-13T06:41:04;3.70;;;0.95;;
28481;SDS011;15703;49.588;6.260;2023-07-13T06:43:26;5.72;;;1.00;;
28481;SDS011;15703;49.588;6.260;2023-07-13T06:45:49;2.33;;;0.80;;
28481;SDS011;15703;49.588;6.260;2023-07-13T06:48:12;4.32;;;1.20;;
28481;SDS011;15703;49.588;6.260;2023-07-13T06:50:34;3.03;;;1.10;;
28481;SDS011;15703;49.588;6.260;2023-07-13T06:52:57;2.55;;;0.63;;
28481;SDS011;15703;49.588;6.260;2023-07-13T06:55:20;1.75;;;0.80;;
28481;SDS011;15703;49.588;6.260;2023-07-13T06:57:43;1.88;;;0.57;;
28481;SDS011;15703;49.588;6.260;2023-07-13T07:00:05;4.80;;;0.70;;
28481;SDS011;15703;49.588;6.260;2023-07-13T07:02:28;3.22;;;1.27;;
28481;SDS011;15703;49.588;6.260;2023-07-13T07:04:50;4.63;;;0.82;;
28481;SDS011;15703;49.588;6.260;2023-07-13T07:07:13;4.20;;;0.85;;
28481;SDS011;15703;49.588;6.260;2023-07-13T07:09:35;2.15;;;0.65;;
28481;SDS011;15703;49.588;6.260;2023-07-13T07:11:58;3.28;;;0.95;;
28481;SDS011;15703;49.588;6.260;2023-07-13T07:14:25;1.55;;;0.70;;
28481;SDS011;15703;49.588;6.260;2023-07-13T07:16:47;3.65;;;1.00;;
28481;SDS011;15703;49.588;6.260;2023-07-13T07:19:09;2.40;;;0.80;;
28481;SDS011;15703;49.588;6.260;2023-07-13T07:21:32;3.65;;;0.70;;
28481;SDS011;15703;49.588;6.260;2023-07-13T07:23:54;3.28;;;0.88;;
28481;SDS011;15703;49.588;6.260;2023-07-13T07:26:17;1.23;;;0.73;;
28481;SDS011;15703;49.588;6.260;2023-07-13T07:28:39;10.98;;;1.10;;
28481;SDS011;15703;49.588;6.260;2023-07-13T07:31:10;2.70;;;0.75;;
28481;SDS011;15703;49.588;6.260;2023-07-13T07:33:35;3.90;;;0.93;;
28481;SDS011;15703;49.588;6.260;2023-07-13T07:35:58;2.78;;;0.90;;
28481;SDS011;15703;49.588;6.260;2023-07-13T07:38:23;4.22;;;0.77;;
28481;SDS011;15703;49.588;6.260;2023-07-13T07:40:46;1.65;;;0.60;;
28481;SDS011;15703;49.588;6.260;2023-07-13T07:43:12;4.25;;;0.90;;
28481;SDS011;15703;49.588;6.260;2023-07-13T07:45:35;3.38;;;0.82;;
28481;SDS011;15703;49.588;6.260;2023-07-13T07:47:58;2.75;;;0.90;;
28481;SDS011;15703;49.588;6.260;2023-07-13T07:50:21;4.20;;;0.90;;
28481;SDS011;15703;49.588;6.260;2023-07-13T07:52:43;4.68;;;0.90;;
28481;SDS011;15703;49.588;6.260;2023-07-13T07:55:06;3.05;;;0.82;;
28481;SDS011;15703;49.588;6.260;2023-07-13T07:57:32;2.92;;;0.98;;
28481;SDS011;15703;49.588;6.260;2023-07-13T08:00:14;3.55;;;0.88;;
28481;SDS011;15703;49.588;6.260;2023-07-13T08:02:41;2.35;;;0.80;;
28481;SDS011;15703;49.588;6.260;2023-07-13T08:05:24;2.63;;;0.80;;
28481;SDS011;15703;49.588;6.260;2023-07-13T08:08:04;4.65;;;0.75;;
28481;SDS011;15703;49.588;6.260;2023-07-13T08:10:26;3.50;;;0.65;;
28481;SDS011;15703;49.588;6.260;2023-07-13T08:12:48;1.58;;;0.77;;
28481;SDS011;15703;49.588;6.260;2023-07-13T08:15:15;3.97;;;1.00;;
28481;SDS011;15703;49.588;6.260;2023-07-13T08:17:37;4.40;;;0.90;;
28481;SDS011;15703;49.588;6.260;2023-07-13T08:20:00;3.60;;;0.85;;
28481;SDS011;15703;49.588;6.260;2023-07-13T08:22:22;2.45;;;1.02;;
28481;SDS011;15703;49.588;6.260;2023-07-13T08:24:44;3.40;;;1.00;;
28481;SDS011;15703;49.588;6.260;2023-07-13T08:27:08;3.38;;;0.80;;
28481;SDS011;15703;49.588;6.260;2023-07-13T08:29:32;3.92;;;1.10;;
28481;SDS011;15703;49.588;6.260;2023-07-13T08:31:54;3.83;;;1.00;;
28481;SDS011;15703;49.588;6.260;2023-07-13T08:34:17;4.95;;;1.10;;
28481;SDS011;15703;49.588;6.260;2023-07-13T08:36:39;2.88;;;0.85;;
28481;SDS011;15703;49.588;6.260;2023-07-13T08:39:02;3.85;;;1.02;;
28481;SDS011;15703;49.588;6.260;2023-07-13T08:41:24;3.88;;;0.80;;
28481;SDS011;15703;49.588;6.260;2023-07-13T08:43:56;4.25;;;1.15;;
28481;SDS011;15703;49.588;6.260;2023-07-13T08:46:26;3.28;;;0.82;;
28481;SDS011;15703;49.588;6.260;2023-07-13T08:48:52;2.33;;;0.90;;
28481;SDS011;15703;49.588;6.260;2023-07-13T08:53:43;3.85;;;1.15;;
28481;SDS011;15703;49.588;6.260;2023-07-13T08:56:17;3.33;;;0.95;;
28481;SDS011;15703;49.588;6.260;2023-07-13T08:58:40;2.55;;;0.85;;
28481;SDS011;15703;49.588;6.260;2023-07-13T09:03:40;3.22;;;0.80;;
28481;SDS011;15703;49.588;6.260;2023-07-13T09:06:06;3.28;;;0.88;;
28481;SDS011;15703;49.588;6.260;2023-07-13T09:11:04;2.67;;;1.00;;
28481;SDS011;15703;49.588;6.260;2023-07-13T09:13:37;5.57;;;1.33;;
28481;SDS011;15703;49.588;6.260;2023-07-13T09:16:02;5.53;;;1.25;;
28481;SDS011;15703;49.588;6.260;2023-07-13T09:18:32;2.80;;;0.80;;
28481;SDS011;15703;49.588;6.260;2023-07-13T09:20:59;3.08;;;0.85;;
28481;SDS011;15703;49.588;6.260;2023-07-13T09:23:23;2.60;;;0.88;;
28481;SDS011;15703;49.588;6.260;2023-07-13T09:25:47;2.33;;;0.80;;
28481;SDS011;15703;49.588;6.260;2023-07-13T09:28:16;2.15;;;0.70;;
28481;SDS011;15703;49.588;6.260;2023-07-13T09:33:14;2.08;;;0.70;;
28481;SDS011;15703;49.588;6.260;2023-07-13T09:35:37;3.85;;;0.55;;
28481;SDS011;15703;49.588;6.260;2023-07-13T09:38:04;1.08;;;0.50;;
28481;SDS011;15703;49.588;6.260;2023-07-13T09:40:36;0.95;;;0.50;;
28481;SDS011;15703;49.588;6.260;2023-07-13T09:43:01;5.28;;;0.60;;
28481;SDS011;15703;49.588;6.260;2023-07-13T09:45:29;1.10;;;0.50;;
28481;SDS011;15703;49.588;6.260;2023-07-13T09:47:53;1.23;;;0.60;;
28481;SDS011;15703;49.588;6.260;2023-07-13T09:50:21;4.55;;;1.00;;
28481;SDS011;15703;49.588;6.260;2023-07-13T09:52:44;3.92;;;0.90;;
28481;SDS011;15703;49.588;6.260;2023-07-13T09:57:48;1.98;;;0.60;;
28481;SDS011;15703;49.588;6.260;2023-07-13T10:00:18;1.85;;;0.63;;
28481;SDS011;15703;49.588;6.260;2023-07-13T10:02:41;2.92;;;0.50;;
28481;SDS011;15703;49.588;6.260;2023-07-13T10:05:11;3.08;;;0.82;;
28481;SDS011;15703;49.588;6.260;2023-07-13T10:07:37;2.03;;;0.77;;
28481;SDS011;15703;49.588;6.260;2023-07-13T10:10:00;0.82;;;0.52;;
28481;SDS011;15703;49.588;6.260;2023-07-13T10:12:24;2.53;;;0.75;;
28481;SDS011;15703;49.588;6.260;2023-07-13T10:14:47;2.60;;;0.65;;
28481;SDS011;15703;49.588;6.260;2023-07-13T10:17:10;1.73;;;0.68;;
28481;SDS011;15703;49.588;6.260;2023-07-13T10:19:35;1.30;;;0.50;;
28481;SDS011;15703;49.588;6.260;2023-07-13T10:21:59;2.08;;;0.70;;
28481;SDS011;15703;49.588;6.260;2023-07-13T10:24:23;1.33;;;0.50;;
28481;SDS011;15703;49.588;6.260;2023-07-13T10:26:56;1.80;;;0.70;;
28481;SDS011;15703;49.588;6.260;2023-07-13T10:29:22;2.30;;;0.80;;
28481;SDS011;15703;49.588;6.260;2023-07-13T10:31:45;2.10;;;0.50;;
28481;SDS011;15703;49.588;6.260;2023-07-13T10:34:09;1.48;;;0.70;;
28481;SDS011;15703;49.588;6.260;2023-07-13T10:36:34;1.33;;;0.60;;
28481;SDS011;15703;49.588;6.260;2023-07-13T10:38:59;7.38;;;0.75;;
28481;SDS011;15703;49.588;6.260;2023-07-13T10:41:23;1.08;;;0.45;;
28481;SDS011;15703;49.588;6.260;2023-07-13T10:43:47;2.38;;;0.60;;
28481;SDS011;15703;49.588;6.260;2023-07-13T10:46:12;1.65;;;0.60;;
28481;SDS011;15703;49.588;6.260;2023-07-13T10:48:36;2.88;;;0.63;;
28481;SDS011;15703;49.588;6.260;2023-07-13T10:50:59;3.83;;;0.70;;
28481;SDS011;15703;49.588;6.260;2023-07-13T10:53:30;2.65;;;0.68;;
28481;SDS011;15703;49.588;6.260;2023-07-13T10:58:19;0.95;;;0.50;;
28481;SDS011;15703;49.588;6.260;2023-07-13T11:03:22;1.50;;;0.65;;
28481;SDS011;15703;49.588;6.260;2023-07-13T11:05:48;2.28;;;0.70;;
28481;SDS011;15703;49.588;6.260;2023-07-13T11:08:21;3.45;;;0.52;;
28481;SDS011;15703;49.588;6.260;2023-07-13T11:10:55;1.75;;;0.50;;
28481;SDS011;15703;49.588;6.260;2023-07-13T11:13:38;3.47;;;0.88;;
28481;SDS011;15703;49.588;6.260;2023-07-13T11:18:49;3.15;;;0.80;;
28481;SDS011;15703;49.588;6.260;2023-07-13T11:21:15;1.42;;;0.45;;
28481;SDS011;15703;49.588;6.260;2023-07-13T11:23:52;2.45;;;0.55;;
28481;SDS011;15703;49.588;6.260;2023-07-13T11:28:56;2.75;;;0.68;;
28481;SDS011;15703;49.588;6.260;2023-07-13T11:31:18;2.42;;;0.60;;
28481;SDS011;15703;49.588;6.260;2023-07-13T11:33:49;0.65;;;0.28;;
28481;SDS011;15703;49.588;6.260;2023-07-13T11:36:13;1.08;;;0.63;;
28481;SDS011;15703;49.588;6.260;2023-07-13T11:38:37;2.15;;;0.40;;
28481;SDS011;15703;49.588;6.260;2023-07-13T11:41:01;0.60;;;0.30;;
28481;SDS011;15703;49.588;6.260;2023-07-13T11:43:24;2.05;;;0.47;;
28481;SDS011;15703;49.588;6.260;2023-07-13T11:45:47;3.15;;;0.50;;
28481;SDS011;15703;49.588;6.260;2023-07-13T11:48:21;2.17;;;0.60;;
28481;SDS011;15703;49.588;6.260;2023-07-13T11:50:48;3.17;;;0.80;;
28481;SDS011;15703;49.588;6.260;2023-07-13T11:53:11;1.65;;;0.60;;
28481;SDS011;15703;49.588;6.260;2023-07-13T11:55:34;2.53;;;1.02;;
28481;SDS011;15703;49.588;6.260;2023-07-13T11:58:01;2.65;;;0.77;;
28481;SDS011;15703;49.588;6.260;2023-07-13T12:00:28;2.70;;;0.73;;
28481;SDS011;15703;49.588;6.260;2023-07-13T12:02:56;0.65;;;0.45;;
28481;SDS011;15703;49.588;6.260;2023-07-13T12:05:19;1.33;;;0.50;;
28481;SDS011;15703;49.588;6.260;2023-07-13T12:07:42;2.25;;;0.52;;
28481;SDS011;15703;49.588;6.260;2023-07-13T12:10:18;5.43;;;1.15;;
28481;SDS011;15703;49.588;6.260;2023-07-13T12:12:46;1.15;;;0.60;;
28481;SDS011;15703;49.588;6.260;2023-07-13T12:15:10;3.63;;;0.80;;
28481;SDS011;15703;49.588;6.260;2023-07-13T12:17:33;4.05;;;0.77;;
28481;SDS011;15703;49.588;6.260;2023-07-13T12:19:56;1.13;;;0.52;;
28481;SDS011;15703;49.588;6.260;2023-07-13T12:22:19;0.90;;;0.50;;
28481;SDS011;15703;49.588;6.260;2023-07-13T12:24:44;4.22;;;1.13;;
28481;SDS011;15703;49.588;6.260;2023-07-13T12:27:18;2.22;;;0.68;;
28481;SDS011;15703;49.588;6.260;2023-07-13T12:29:48;2.58;;;0.82;;
28481;SDS011;15703;49.588;6.260;2023-07-13T12:32:14;0.80;;;0.40;;
28481;SDS011;15703;49.588;6.260;2023-07-13T12:34:50;1.42;;;0.50;;
28481;SDS011;15703;49.588;6.260;2023-07-13T12:37:13;3.85;;;0.80;;
28481;SDS011;15703;49.588;6.260;2023-07-13T12:39:37;1.63;;;0.70;;
28481;SDS011;15703;49.588;6.260;2023-07-13T12:44:53;3.30;;;0.50;;
28481;SDS011;15703;49.588;6.260;2023-07-13T12:47:16;1.80;;;0.60;;
28481;SDS011;15703;49.588;6.260;2023-07-13T12:49:41;3.13;;;0.80;;
28481;SDS011;15703;49.588;6.260;2023-07-13T12:52:03;2.05;;;0.70;;
28481;SDS011;15703;49.588;6.260;2023-07-13T12:54:27;2.10;;;0.50;;
28481;SDS011;15703;49.588;6.260;2023-07-13T12:56:50;1.58;;;0.68;;
28481;SDS011;15703;49.588;6.260;2023-07-13T12:59:18;1.80;;;0.60;;
28481;SDS011;15703;49.588;6.260;2023-07-13T13:01:41;2.70;;;1.00;;
28481;SDS011;15703;49.588;6.260;2023-07-13T13:04:04;1.33;;;0.60;;
28481;SDS011;15703;49.588;6.260;2023-07-13T13:06:28;1.85;;;0.70;;
28481;SDS011;15703;49.588;6.260;2023-07-13T13:08:57;1.85;;;0.60;;
28481;SDS011;15703;49.588;6.260;2023-07-13T13:11:20;2.33;;;0.60;;
28481;SDS011;15703;49.588;6.260;2023-07-13T13:13:44;2.83;;;0.68;;
28481;SDS011;15703;49.588;6.260;2023-07-13T13:16:30;1.50;;;0.73;;
28481;SDS011;15703;49.588;6.260;2023-07-13T13:18:53;3.42;;;0.80;;
28481;SDS011;15703;49.588;6.260;2023-07-13T13:21:18;1.88;;;0.57;;
28481;SDS011;15703;49.588;6.260;2023-07-13T13:23:40;1.77;;;0.65;;
28481;SDS011;15703;49.588;6.260;2023-07-13T13:26:08;1.48;;;0.80;;
28481;SDS011;15703;49.588;6.260;2023-07-13T13:28:32;2.05;;;0.85;;
28481;SDS011;15703;49.588;6.260;2023-07-13T13:30:56;2.28;;;0.70;;
28481;SDS011;15703;49.588;6.260;2023-07-13T13:33:22;1.80;;;0.70;;
28481;SDS011;15703;49.588;6.260;2023-07-13T13:35:46;1.17;;;0.60;;
28481;SDS011;15703;49.588;6.260;2023-07-13T13:38:13;2.60;;;0.98;;
28481;SDS011;15703;49.588;6.260;2023-07-13T13:40:38;2.42;;;0.70;;
28481;SDS011;15703;49.588;6.260;2023-07-13T13:43:01;2.65;;;0.95;;
28481;SDS011;15703;49.588;6.260;2023-07-13T13:45:38;3.95;;;0.65;;
28481;SDS011;15703;49.588;6.260;2023-07-13T13:48:18;2.30;;;1.02;;
28481;SDS011;15703;49.588;6.260;2023-07-13T13:50:41;4.15;;;1.13;;
28481;SDS011;15703;49.588;6.260;2023-07-13T13:53:11;2.13;;;0.82;;
28481;SDS011;15703;49.588;6.260;2023-07-13T13:55:34;1.65;;;0.82;;
28481;SDS011;15703;49.588;6.260;2023-07-13T13:57:57;2.40;;;1.00;;
28481;SDS011;15703;49.588;6.260;2023-07-13T14:00:22;2.22;;;0.82;;
28481;SDS011;15703;49.588;6.260;2023-07-13T14:02:50;1.80;;;0.70;;
28481;SDS011;15703;49.588;6.260;2023-07-13T14:05:18;3.55;;;0.82;;
28481;SDS011;15703;49.588;6.260;2023-07-13T14:07:42;2.83;;;0.93;;
28481;SDS011;15703;49.588;6.260;2023-07-13T14:10:11;3.45;;;0.85;;
28481;SDS011;15703;49.588;6.260;2023-07-13T14:12:40;3.33;;;0.93;;
28481;SDS011;15703;49.588;6.260;2023-07-13T14:15:02;1.35;;;0.70;;
28481;SDS011;15703;49.588;6.260;2023-07-13T14:17:26;4.03;;;1.10;;
28481;SDS011;15703;49.588;6.260;2023-07-13T14:19:50;2.92;;;0.80;;
28481;SDS011;15703;49.588;6.260;2023-07-13T14:22:19;3.92;;;1.10;;
28481;SDS011;15703;49.588;6.260;2023-07-13T14:24:46;5.10;;;0.85;;
28481;SDS011;15703;49.588;6.260;2023-07-13T14:27:09;2.50;;;0.88;;
28481;SDS011;15703;49.588;6.260;2023-07-13T14:29:36;2.75;;;1.10;;
28481;SDS011;15703;49.588;6.260;2023-07-13T14:31:59;2.30;;;0.80;;
28481;SDS011;15703;49.588;6.260;2023-07-13T14:34:22;2.28;;;0.90;;
28481;SDS011;15703;49.588;6.260;2023-07-13T14:36:45;3.00;;;0.70;;
28481;SDS011;15703;49.588;6.260;2023-07-13T14:42:18;2.63;;;0.98;;
28481;SDS011;15703;49.588;6.260;2023-07-13T14:44:41;2.22;;;0.93;;
28481;SDS011;15703;49.588;6.260;2023-07-13T14:47:04;1.85;;;0.60;;
28481;SDS011;15703;49.588;6.260;2023-07-13T14:51:58;5.55;;;1.15;;
28481;SDS011;15703;49.588;6.260;2023-07-13T14:54:22;4.38;;;0.63;;
28481;SDS011;15703;49.588;6.260;2023-07-13T14:56:44;3.15;;;0.80;;
28481;SDS011;15703;49.588;6.260;2023-07-13T14:59:07;2.20;;;0.85;;
28481;SDS011;15703;49.588;6.260;2023-07-13T15:01:29;2.60;;;0.63;;
28481;SDS011;15703;49.588;6.260;2023-07-13T15:03:52;4.18;;;0.90;;
28481;SDS011;15703;49.588;6.260;2023-07-13T15:06:15;3.35;;;0.93;;